Time;durP1;ratioP1;P1;durP2;ratioP2;P2;SDS_P1;SDS_P2;PMS_P1;PMS_P2;Temp;Humidity;BMP_temperature;BMP_pressure;BME280_temperature;BME280_humidity;BME280_pressure;Samples;Min_cycle;Max_cycle;Signal;HPM_P1;HPM_P2
2023/03/23 00:00:45;;;;;;;7.18;4.50;;;13.80;99.90;;;;;;4998502;28;20211;-66
2023/03/23 00:03:11;;;;;;;6.50;4.88;;;13.80;99.90;;;;;;5005515;28;20192;-66
2023/03/23 00:05:40;;;;;;;5.85;4.65;;;13.90;99.90;;;;;;5010041;28;20190;-66
2023/03/23 00:08:08;;;;;;;5.13;4.35;;;13.90;99.90;;;;;;5003963;28;20198;-65
2023/03/23 00:10:35;;;;;;;5.88;5.22;;;14.00;99.90;;;;;;5012610;28;20253;-66
2023/03/23 00:13:04;;;;;;;7.43;4.85;;;13.90;99.90;;;;;;5012438;28;20195;-67
2023/03/23 00:15:35;;;;;;;5.45;4.47;;;13.90;99.90;;;;;;5012910;28;20587;-65
2023/03/23 00:18:04;;;;;;;9.05;5.40;;;13.90;99.90;;;;;;5022494;28;20309;-66
2023/03/23 00:20:39;;;;;;;8.48;5.85;;;13.90;99.90;;;;;;5003188;28;20664;-66
2023/03/23 00:23:06;;;;;;;9.10;5.88;;;13.90;99.90;;;;;;4998292;28;20183;-66
2023/03/23 00:25:32;;;;;;;8.63;5.60;;;13.80;99.90;;;;;;5003299;28;20652;-66
2023/03/23 00:27:58;;;;;;;10.73;6.22;;;13.80;99.90;;;;;;5013696;28;20202;-67
2023/03/23 00:30:24;;;;;;;10.07;5.68;;;13.80;99.90;;;;;;5002859;28;20196;-67
2023/03/23 00:32:50;;;;;;;5.97;4.43;;;13.90;99.90;;;;;;5013638;28;20187;-67
2023/03/23 00:35:17;;;;;;;6.45;4.65;;;13.90;99.90;;;;;;5005308;28;20191;-66
2023/03/23 00:37:43;;;;;;;7.28;5.70;;;13.80;99.90;;;;;;5013433;28;20244;-66
2023/03/23 00:40:10;;;;;;;6.60;4.90;;;13.70;99.90;;;;;;5009914;28;20198;-67
2023/03/23 00:42:37;;;;;;;6.88;4.93;;;13.90;99.90;;;;;;4999446;28;20199;-66
2023/03/23 00:45:10;;;;;;;5.80;4.65;;;13.90;99.90;;;;;;5011795;28;20549;-66
2023/03/23 00:47:40;;;;;;;5.65;5.05;;;13.90;99.90;;;;;;5000865;28;20168;-66
2023/03/23 00:50:06;;;;;;;5.00;4.30;;;13.80;99.90;;;;;;5004784;28;20657;-68
2023/03/23 00:52:32;;;;;;;8.73;5.38;;;13.90;99.90;;;;;;5005160;28;20184;-66
2023/03/23 00:54:58;;;;;;;6.18;4.32;;;13.80;99.90;;;;;;5012931;28;20203;-68
2023/03/23 00:57:26;;;;;;;9.68;4.75;;;13.80;99.90;;;;;;5007269;28;20184;-68
2023/03/23 00:59:52;;;;;;;6.75;5.07;;;13.80;99.90;;;;;;5001856;28;20548;-67
2023/03/23 01:02:19;;;;;;;6.53;4.78;;;13.90;99.90;;;;;;5014042;28;20218;-67
2023/03/23 01:04:45;;;;;;;4.85;4.35;;;13.90;99.90;;;;;;5009527;28;20202;-68
2023/03/23 01:07:17;;;;;;;4.82;3.55;;;13.80;99.90;;;;;;5013154;28;20183;-67
2023/03/23 01:09:44;;;;;;;7.75;4.63;;;13.80;99.90;;;;;;5003309;28;20180;-69
2023/03/23 01:12:11;;;;;;;7.22;4.50;;;13.70;99.90;;;;;;5010666;28;20223;-66
2023/03/23 01:14:37;;;;;;;6.05;3.90;;;13.80;99.90;;;;;;5008726;28;20204;-67
2023/03/23 01:17:02;;;;;;;6.00;4.35;;;13.80;99.90;;;;;;5006738;28;20246;-66
2023/03/23 01:19:28;;;;;;;6.15;4.22;;;13.80;99.90;;;;;;5007576;28;20187;-67
2023/03/23 01:21:54;;;;;;;5.75;4.38;;;13.80;99.90;;;;;;5001125;28;20592;-67
2023/03/23 01:24:20;;;;;;;5.53;4.45;;;13.90;99.90;;;;;;5007700;28;20184;-67
2023/03/23 01:26:46;;;;;;;7.28;4.97;;;13.90;99.90;;;;;;5002624;28;20191;-67
2023/03/23 01:29:11;;;;;;;5.75;5.00;;;13.90;99.90;;;;;;5004150;28;20547;-67
2023/03/23 01:31:37;;;;;;;6.18;4.97;;;13.90;99.90;;;;;;5008155;28;20323;-67
2023/03/23 01:34:03;;;;;;;6.68;4.78;;;13.90;99.90;;;;;;5007771;28;20199;-67
2023/03/23 01:36:32;;;;;;;4.68;4.00;;;13.80;99.90;;;;;;5002711;28;20658;-67
2023/03/23 01:39:00;;;;;;;5.15;4.60;;;13.80;99.90;;;;;;5012970;28;20184;-67
2023/03/23 01:41:27;;;;;;;5.57;4.65;;;14.00;99.90;;;;;;5012595;28;20203;-68
2023/03/23 01:43:58;;;;;;;5.28;4.70;;;13.90;99.90;;;;;;4995841;28;20195;-68
2023/03/23 01:46:30;;;;;;;6.28;4.72;;;13.90;99.90;;;;;;5003170;28;20202;-68
2023/03/23 01:48:58;;;;;;;5.95;5.15;;;13.90;99.90;;;;;;4995129;28;20195;-68
2023/03/23 01:51:26;;;;;;;5.75;5.20;;;13.80;99.90;;;;;;5006774;28;20191;-67
2023/03/23 01:53:57;;;;;;;9.93;5.30;;;13.70;99.90;;;;;;5008987;28;20230;-67
2023/03/23 01:56:29;;;;;;;8.00;4.88;;;13.70;99.90;;;;;;5013230;28;20187;-67
2023/03/23 01:58:56;;;;;;;5.18;4.55;;;13.70;99.90;;;;;;5012380;28;20167;-67
2023/03/23 02:01:24;;;;;;;8.48;5.20;;;13.80;99.90;;;;;;5008734;28;20203;-67
2023/03/23 02:03:54;;;;;;;7.53;4.63;;;13.70;99.90;;;;;;4996942;28;20709;-67
2023/03/23 02:06:19;;;;;;;5.15;4.03;;;13.70;99.90;;;;;;5001653;28;20509;-67
2023/03/23 02:08:49;;;;;;;4.28;3.85;;;13.70;99.90;;;;;;5019929;28;20191;-66
2023/03/23 02:11:20;;;;;;;4.90;3.78;;;13.70;99.90;;;;;;4998348;28;20509;-66
2023/03/23 02:13:46;;;;;;;5.03;4.00;;;13.70;99.90;;;;;;5007858;28;20187;-67
2023/03/23 02:16:27;;;;;;;6.43;3.72;;;13.70;99.90;;;;;;5009960;28;20231;-67
2023/03/23 02:18:53;;;;;;;4.63;3.42;;;13.70;99.90;;;;;;5005047;28;20207;-67
2023/03/23 02:21:37;;;;;;;7.55;3.95;;;13.80;99.90;;;;;;4996453;28;20637;-67
2023/03/23 02:24:39;;;;;;;5.43;3.30;;;13.80;99.90;;;;;;5005600;28;20254;-67
2023/03/23 02:27:16;;;;;;;5.07;3.45;;;13.80;99.90;;;;;;5009236;28;20185;-67
2023/03/23 02:29:57;;;;;;;5.00;3.05;;;13.70;99.90;;;;;;5013500;28;20178;-67
2023/03/23 02:32:41;;;;;;;6.30;2.38;;;13.70;99.90;;;;;;5008218;28;20183;-67
2023/03/23 02:35:12;;;;;;;2.30;2.13;;;13.70;99.90;;;;;;5011258;28;20216;-67
2023/03/23 02:37:50;;;;;;;4.20;2.50;;;13.80;99.90;;;;;;5002720;28;20175;-67
2023/03/23 02:40:31;;;;;;;2.80;2.42;;;13.80;99.90;;;;;;5002081;28;20212;-67
2023/03/23 02:42:58;;;;;;;4.15;2.75;;;13.80;99.90;;;;;;4996569;28;20180;-67
2023/03/23 02:45:27;;;;;;;2.38;2.17;;;13.70;99.90;;;;;;4999679;28;20187;-67
2023/03/23 02:47:54;;;;;;;1.88;1.77;;;13.60;99.90;;;;;;5000831;28;20709;-67
2023/03/23 02:50:23;;;;;;;3.03;2.30;;;13.60;99.90;;;;;;5005816;28;20199;-67
2023/03/23 02:52:50;;;;;;;3.97;1.85;;;13.70;99.90;;;;;;5000929;28;20175;-67
2023/03/23 02:55:18;;;;;;;2.38;2.10;;;13.70;99.90;;;;;;5008002;28;20195;-66
2023/03/23 02:57:45;;;;;;;6.30;2.33;;;13.70;99.90;;;;;;5001757;28;20196;-66
2023/03/23 03:00:15;;;;;;;3.17;2.13;;;13.70;99.90;;;;;;5007577;28;20175;-67
2023/03/23 03:02:44;;;;;;;2.25;2.05;;;13.70;99.90;;;;;;5035004;28;20526;-67
2023/03/23 03:05:47;;;;;;;3.20;2.42;;;13.80;99.90;;;;;;4996606;28;20182;-67
2023/03/23 03:08:34;;;;;;;2.15;1.40;;;13.80;99.90;;;;;;5006438;28;20194;-67
2023/03/23 03:11:06;;;;;;;3.70;1.70;;;13.80;99.90;;;;;;5010533;28;20179;-67
2023/03/23 03:13:41;;;;;;;1.80;1.58;;;13.90;99.90;;;;;;4996551;28;20180;-67
2023/03/23 03:16:18;;;;;;;1.77;1.65;;;13.80;99.90;;;;;;5006371;28;20234;-67
2023/03/23 03:18:59;;;;;;;1.55;1.45;;;13.80;99.90;;;;;;5010123;28;20658;-67
2023/03/23 03:21:28;;;;;;;3.28;1.70;;;13.70;99.90;;;;;;5006015;28;20283;-66
2023/03/23 03:24:00;;;;;;;2.00;1.58;;;13.70;99.90;;;;;;4998581;28;20188;-68
2023/03/23 03:26:28;;;;;;;1.45;1.38;;;13.70;99.90;;;;;;5001425;28;20175;-67
2023/03/23 03:28:55;;;;;;;3.22;1.13;;;13.70;99.90;;;;;;4988168;28;20647;-67
2023/03/23 03:31:27;;;;;;;2.10;1.15;;;13.80;99.90;;;;;;5004489;28;20188;-66
2023/03/23 03:33:53;;;;;;;3.97;1.80;;;13.80;99.90;;;;;;5001322;28;20180;-67
2023/03/23 03:36:26;;;;;;;3.67;1.83;;;13.80;99.90;;;;;;5010775;28;20179;-67
2023/03/23 03:38:52;;;;;;;1.42;1.35;;;13.70;99.90;;;;;;5016332;28;20190;-67
2023/03/23 03:41:19;;;;;;;5.82;2.28;;;13.70;99.90;;;;;;5015662;28;20214;-67
2023/03/23 03:43:45;;;;;;;4.45;2.17;;;13.50;99.90;;;;;;5010850;28;20195;-67
2023/03/23 03:46:11;;;;;;;1.73;1.63;;;13.60;99.90;;;;;;5038712;28;20219;-68
2023/03/23 03:48:37;;;;;;;2.05;1.60;;;13.60;99.90;;;;;;5010485;28;20648;-67
2023/03/23 03:51:03;;;;;;;3.85;1.33;;;13.70;99.90;;;;;;5046014;28;20183;-67
2023/03/23 03:53:30;;;;;;;1.33;1.25;;;13.50;99.90;;;;;;5006351;28;20175;-67
2023/03/23 03:55:59;;;;;;;4.15;1.30;;;13.40;99.90;;;;;;5044448;28;20240;-65
2023/03/23 03:58:31;;;;;;;2.67;1.30;;;13.60;99.90;;;;;;5015010;28;20184;-67
2023/03/23 04:00:58;;;;;;;2.40;1.23;;;13.60;99.90;;;;;;5005157;28;20623;-67
2023/03/23 04:03:25;;;;;;;4.13;1.40;;;13.70;99.90;;;;;;5013663;28;20234;-67
2023/03/23 04:05:51;;;;;;;4.25;1.38;;;13.70;99.90;;;;;;5005125;28;20188;-67
2023/03/23 04:08:17;;;;;;;1.63;1.13;;;13.60;99.90;;;;;;5010665;28;20659;-67
2023/03/23 04:10:43;;;;;;;2.53;1.55;;;13.70;99.90;;;;;;5007104;28;20184;-67
2023/03/23 04:13:09;;;;;;;2.13;1.27;;;13.70;99.90;;;;;;4999609;28;20175;-67
2023/03/23 04:15:35;;;;;;;3.67;1.98;;;13.70;99.90;;;;;;4996606;28;20183;-67
2023/03/23 04:18:01;;;;;;;8.30;2.75;;;13.80;99.90;;;;;;5043299;28;20228;-67
2023/03/23 04:20:26;;;;;;;4.43;1.77;;;13.60;99.90;;;;;;5012617;28;20298;-67
2023/03/23 04:22:54;;;;;;;2.30;1.35;;;13.60;99.90;;;;;;5005737;28;20196;-68
2023/03/23 04:25:20;;;;;;;2.88;1.30;;;13.70;99.90;;;;;;5011428;28;20538;-67
2023/03/23 04:27:52;;;;;;;5.43;1.73;;;13.70;99.90;;;;;;5039721;28;20199;-68
2023/03/23 04:30:22;;;;;;;1.45;1.35;;;13.70;99.90;;;;;;5001135;28;20226;-67
2023/03/23 04:32:50;;;;;;;9.13;1.80;;;13.60;99.90;;;;;;5001966;28;20194;-65
2023/03/23 04:35:17;;;;;;;5.70;1.50;;;13.70;99.90;;;;;;5007931;28;20549;-67
2023/03/23 04:37:43;;;;;;;5.72;1.73;;;13.80;99.90;;;;;;5013457;28;20550;-66
2023/03/23 04:40:12;;;;;;;5.55;1.63;;;13.90;99.90;;;;;;5000198;28;20197;-67
2023/03/23 04:42:38;;;;;;;3.15;1.45;;;13.70;99.90;;;;;;5012702;28;20183;-67
2023/03/23 04:45:06;;;;;;;4.55;1.52;;;13.80;99.90;;;;;;5001743;28;20187;-67
2023/03/23 04:47:39;;;;;;;2.97;1.73;;;13.80;99.90;;;;;;5002820;28;20176;-67
2023/03/23 04:50:06;;;;;;;4.63;1.88;;;13.70;99.90;;;;;;5008526;28;20176;-67
2023/03/23 04:52:32;;;;;;;5.07;1.73;;;13.70;99.90;;;;;;5040347;28;20180;-67
2023/03/23 04:54:57;;;;;;;2.88;1.40;;;13.50;99.90;;;;;;5012727;28;20546;-67
2023/03/23 04:57:25;;;;;;;2.75;1.05;;;13.40;99.90;;;;;;5003672;28;20238;-67
2023/03/23 04:59:51;;;;;;;2.55;1.63;;;13.50;99.90;;;;;;5005655;28;20180;-68
2023/03/23 05:02:17;;;;;;;3.97;2.22;;;13.50;99.90;;;;;;5032809;28;20234;-67
2023/03/23 05:04:42;;;;;;;3.47;1.48;;;13.40;99.90;;;;;;5010609;28;20600;-67
2023/03/23 05:07:10;;;;;;;6.57;1.67;;;13.50;99.90;;;;;;5005259;28;20215;-67
2023/03/23 05:09:35;;;;;;;4.00;2.08;;;13.30;99.90;;;;;;5003942;28;20187;-65
2023/03/23 05:12:09;;;;;;;4.13;1.52;;;13.20;99.90;;;;;;5012963;28;20708;-66
2023/03/23 05:14:36;;;;;;;2.10;1.23;;;13.20;99.90;;;;;;5009137;28;20294;-68
2023/03/23 05:17:02;;;;;;;3.22;1.67;;;13.30;99.90;;;;;;5036254;28;20267;-67
2023/03/23 05:19:27;;;;;;;4.75;1.48;;;13.30;99.90;;;;;;5001226;28;20640;-67
2023/03/23 05:21:56;;;;;;;6.75;1.52;;;13.30;99.90;;;;;;5006165;28;20204;-66
2023/03/23 05:24:24;;;;;;;4.38;1.55;;;13.30;99.90;;;;;;5004839;28;20589;-67
2023/03/23 05:26:52;;;;;;;1.70;1.20;;;13.30;99.90;;;;;;5012663;28;20194;-67
2023/03/23 05:29:18;;;;;;;4.03;1.50;;;13.50;99.90;;;;;;5013072;28;20210;-67
2023/03/23 05:31:47;;;;;;;2.35;1.40;;;13.60;99.90;;;;;;5005112;28;20610;-67
2023/03/23 05:34:13;;;;;;;2.03;1.88;;;13.40;99.90;;;;;;5010143;28;20201;-67
2023/03/23 05:36:38;;;;;;;5.20;1.58;;;13.30;99.90;;;;;;5003854;28;20188;-67
2023/03/23 05:39:04;;;;;;;1.70;1.25;;;13.30;99.90;;;;;;5012694;28;20199;-67
2023/03/23 05:41:30;;;;;;;2.75;1.77;;;13.40;99.90;;;;;;5006362;28;20665;-67
2023/03/23 05:43:55;;;;;;;4.78;1.83;;;13.40;99.90;;;;;;5042614;28;20202;-68
2023/03/23 05:46:21;;;;;;;2.20;1.35;;;13.40;99.90;;;;;;4995819;28;20270;-67
2023/03/23 05:48:47;;;;;;;1.60;1.13;;;13.40;99.90;;;;;;5007597;28;20216;-67
2023/03/23 05:51:13;;;;;;;5.82;1.95;;;13.50;99.90;;;;;;5006046;28;20200;-68
2023/03/23 05:53:38;;;;;;;3.03;1.30;;;13.40;99.90;;;;;;5020029;28;20192;-67
2023/03/23 05:56:04;;;;;;;4.57;1.50;;;13.40;99.90;;;;;;5037840;28;20544;-66
2023/03/23 05:58:31;;;;;;;2.92;2.08;;;13.40;99.90;;;;;;5008629;28;21231;-66
2023/03/23 06:00:56;;;;;;;4.18;1.85;;;13.30;99.90;;;;;;5009465;28;20289;-66
2023/03/23 06:03:22;;;;;;;4.32;1.90;;;13.40;99.90;;;;;;4994712;28;20708;-67
2023/03/23 06:05:48;;;;;;;6.97;1.70;;;13.40;99.90;;;;;;5014249;28;20183;-67
2023/03/23 06:08:14;;;;;;;3.58;1.63;;;13.40;99.90;;;;;;5001810;28;20183;-65
2023/03/23 06:10:40;;;;;;;4.18;1.65;;;13.40;99.90;;;;;;5014888;28;20187;-66
2023/03/23 06:13:06;;;;;;;4.10;1.55;;;13.30;99.90;;;;;;5012319;28;20191;-67
2023/03/23 06:15:32;;;;;;;6.65;1.50;;;13.30;99.90;;;;;;5011507;28;20176;-67
2023/03/23 06:17:59;;;;;;;4.55;1.45;;;13.20;99.90;;;;;;5010616;28;20223;-65
2023/03/23 06:20:25;;;;;;;2.90;1.80;;;13.30;99.90;;;;;;5006050;28;20329;-67
2023/03/23 06:22:51;;;;;;;1.77;1.48;;;13.30;99.90;;;;;;4994034;28;20211;-66
2023/03/23 06:25:18;;;;;;;3.72;1.77;;;13.40;99.90;;;;;;5008533;28;20171;-66
2023/03/23 06:27:45;;;;;;;3.13;1.55;;;13.50;99.90;;;;;;5011303;28;20175;-67
2023/03/23 06:30:12;;;;;;;3.50;2.67;;;13.50;99.90;;;;;;4995791;28;20203;-67
2023/03/23 06:32:38;;;;;;;5.70;1.52;;;13.50;99.90;;;;;;5001993;28;20183;-67
2023/03/23 06:35:04;;;;;;;2.67;1.40;;;13.60;99.90;;;;;;5004392;28;20537;-68
2023/03/23 06:37:30;;;;;;;5.10;2.05;;;13.60;99.90;;;;;;5008651;28;20178;-68
2023/03/23 06:39:56;;;;;;;1.88;1.75;;;13.70;99.90;;;;;;4985837;28;20594;-68
2023/03/23 06:42:26;;;;;;;3.70;1.10;;;13.80;99.90;;;;;;5019875;28;20206;-68
2023/03/23 06:44:53;;;;;;;3.70;1.48;;;13.80;99.90;;;;;;5005098;28;20183;-67
2023/03/23 06:47:18;;;;;;;3.55;1.42;;;13.70;99.90;;;;;;5011609;28;20539;-68
2023/03/23 06:49:44;;;;;;;4.88;0.98;;;13.70;99.90;;;;;;5010654;28;20183;-68
2023/03/23 06:52:10;;;;;;;1.65;1.00;;;13.50;99.90;;;;;;5009339;28;20184;-68
2023/03/23 06:54:35;;;;;;;0.68;0.68;;;13.30;99.90;;;;;;5011188;28;20706;-66
2023/03/23 06:57:01;;;;;;;0.68;0.68;;;12.80;99.90;;;;;;5012290;28;20206;-68
2023/03/23 06:59:27;;;;;;;3.80;1.58;;;12.60;99.90;;;;;;5007167;28;20192;-69
2023/03/23 07:01:53;;;;;;;0.93;0.80;;;12.30;99.90;;;;;;5000788;28;20601;-68
2023/03/23 07:04:18;;;;;;;2.35;0.93;;;11.90;99.90;;;;;;4993672;28;20188;-68
2023/03/23 07:06:45;;;;;;;1.00;0.75;;;11.70;99.90;;;;;;5001708;28;20651;-69
2023/03/23 07:09:11;;;;;;;0.80;0.80;;;11.70;99.90;;;;;;5010435;28;20200;-68
2023/03/23 07:11:37;;;;;;;9.65;0.98;;;11.60;99.90;;;;;;5006742;28;20175;-68
2023/03/23 07:14:04;;;;;;;1.67;0.50;;;11.60;99.90;;;;;;5012675;28;20180;-67
2023/03/23 07:16:30;;;;;;;0.70;0.65;;;11.40;99.90;;;;;;5006215;28;20214;-67
2023/03/23 07:18:56;;;;;;;0.38;0.38;;;11.20;99.90;;;;;;4995263;28;20258;-67
2023/03/23 07:21:22;;;;;;;2.05;0.80;;;11.10;99.90;;;;;;5008598;28;20198;-68
2023/03/23 07:23:48;;;;;;;0.85;0.75;;;11.10;99.90;;;;;;5008613;28;20574;-67
2023/03/23 07:26:13;;;;;;;1.95;0.70;;;11.00;99.90;;;;;;5003589;28;20648;-67
2023/03/23 07:28:42;;;;;;;2.47;0.93;;;11.00;99.90;;;;;;4991834;28;20191;-64
2023/03/23 07:31:09;;;;;;;1.40;0.77;;;11.00;99.90;;;;;;4991166;28;20555;-66
2023/03/23 07:33:35;;;;;;;1.95;0.63;;;11.00;99.90;;;;;;5007438;28;20183;-65
2023/03/23 07:36:02;;;;;;;1.63;0.90;;;11.00;99.90;;;;;;5007346;28;20187;-64
2023/03/23 07:38:29;;;;;;;0.80;0.80;;;11.10;99.90;;;;;;4990652;28;20199;-66
2023/03/23 07:40:56;;;;;;;2.95;0.88;;;11.10;99.90;;;;;;5004641;28;20235;-66
2023/03/23 07:43:22;;;;;;;2.90;0.90;;;11.20;99.90;;;;;;5043385;28;20202;-66
2023/03/23 07:45:48;;;;;;;2.95;0.60;;;11.30;99.90;;;;;;5001442;28;20200;-65
2023/03/23 07:48:14;;;;;;;1.10;0.60;;;11.40;99.90;;;;;;5016639;28;20594;-65
2023/03/23 07:50:40;;;;;;;1.27;0.50;;;11.50;99.90;;;;;;5002514;28;20183;-66
2023/03/23 07:53:05;;;;;;;1.17;1.08;;;11.60;99.90;;;;;;5008390;28;20208;-64
2023/03/23 07:55:31;;;;;;;0.98;0.93;;;11.70;99.90;;;;;;5010660;28;20184;-66
2023/03/23 07:57:57;;;;;;;3.15;1.15;;;11.70;99.90;;;;;;5008588;28;20269;-66
2023/03/23 08:00:24;;;;;;;3.25;2.00;;;11.70;99.90;;;;;;5010792;28;20199;-67
2023/03/23 08:02:56;;;;;;;1.08;1.08;;;11.90;99.90;;;;;;5008823;28;20546;-65
2023/03/23 08:05:23;;;;;;;1.67;1.25;;;11.90;99.90;;;;;;5009695;28;20599;-63
2023/03/23 08:07:49;;;;;;;1.52;1.42;;;12.10;99.90;;;;;;5007160;28;20184;-67
2023/03/23 08:10:17;;;;;;;4.22;1.90;;;12.20;99.90;;;;;;5009225;28;20172;-66
2023/03/23 08:12:43;;;;;;;5.22;2.40;;;12.20;99.90;;;;;;5004167;28;20194;-68
2023/03/23 08:15:15;;;;;;;2.53;2.08;;;12.30;99.90;;;;;;5002341;28;20175;-67
2023/03/23 08:17:42;;;;;;;2.83;1.92;;;12.60;99.90;;;;;;5010694;28;20608;-65
2023/03/23 08:20:13;;;;;;;2.55;1.13;;;12.60;99.90;;;;;;5009744;28;20185;-64
2023/03/23 08:22:44;;;;;;;3.65;1.80;;;12.50;99.90;;;;;;5002641;28;20187;-65
2023/03/23 08:25:12;;;;;;;1.60;1.40;;;12.50;99.90;;;;;;5015727;28;20198;-66
2023/03/23 08:27:43;;;;;;;7.38;2.22;;;12.30;99.90;;;;;;5011074;28;20274;-65
2023/03/23 08:30:10;;;;;;;2.65;1.55;;;12.30;99.90;;;;;;5023493;28;20655;-65
2023/03/23 08:32:37;;;;;;;1.55;1.30;;;12.30;99.90;;;;;;5006741;28;20183;-64
2023/03/23 08:35:03;;;;;;;2.42;1.38;;;12.20;99.90;;;;;;5029307;28;20183;-65
2023/03/23 08:37:29;;;;;;;3.63;2.60;;;12.20;99.90;;;;;;5009421;28;20175;-66
2023/03/23 08:39:59;;;;;;;5.45;1.35;;;12.10;99.90;;;;;;5008951;28;20266;-68
2023/03/23 08:42:25;;;;;;;2.65;1.20;;;12.10;99.90;;;;;;5004573;28;20207;-65
2023/03/23 08:44:52;;;;;;;0.85;0.85;;;12.30;99.90;;;;;;5001260;28;20219;-65
2023/03/23 08:47:18;;;;;;;1.83;1.70;;;12.30;99.90;;;;;;5003364;28;20187;-66
2023/03/23 08:49:45;;;;;;;1.27;1.17;;;12.10;99.90;;;;;;5006969;28;20191;-65
2023/03/23 08:52:11;;;;;;;1.58;1.13;;;12.10;99.90;;;;;;5009483;28;20238;-69
2023/03/23 08:54:37;;;;;;;3.15;1.50;;;12.20;99.90;;;;;;4997776;28;20175;-69
2023/03/23 08:57:03;;;;;;;1.38;1.27;;;12.20;99.90;;;;;;5005194;28;20278;-66
2023/03/23 08:59:29;;;;;;;2.47;1.08;;;12.30;99.90;;;;;;4996302;28;20615;-66
2023/03/23 09:01:55;;;;;;;1.80;1.23;;;12.40;99.90;;;;;;5004198;28;20227;-66
2023/03/23 09:04:21;;;;;;;1.77;1.08;;;12.50;99.90;;;;;;4999028;28;20207;-68
2023/03/23 09:06:47;;;;;;;1.23;1.08;;;12.50;99.90;;;;;;4991914;28;20191;-68
2023/03/23 09:09:13;;;;;;;1.08;1.05;;;12.50;99.90;;;;;;5007936;28;20634;-67
2023/03/23 09:11:39;;;;;;;1.75;1.52;;;12.60;99.90;;;;;;5008957;28;20187;-67
2023/03/23 09:14:07;;;;;;;2.38;1.35;;;12.90;99.90;;;;;;4989351;28;20188;-70
2023/03/23 09:16:33;;;;;;;2.15;1.10;;;12.90;99.90;;;;;;5008795;28;20767;-68
2023/03/23 09:19:00;;;;;;;3.53;1.17;;;13.10;99.90;;;;;;5007177;28;20176;-65
2023/03/23 09:21:27;;;;;;;1.65;1.17;;;13.20;99.90;;;;;;5004810;28;20192;-69
2023/03/23 09:23:56;;;;;;;1.42;1.00;;;13.40;99.90;;;;;;4998947;28;20241;-68
2023/03/23 09:26:22;;;;;;;1.63;1.50;;;13.50;99.90;;;;;;5004565;28;20176;-65
2023/03/23 09:28:48;;;;;;;1.27;1.27;;;13.30;99.90;;;;;;5007555;28;20240;-68
2023/03/23 09:31:13;;;;;;;2.13;1.42;;;13.20;99.90;;;;;;5004143;28;20180;-69
2023/03/23 09:33:39;;;;;;;1.30;1.20;;;13.30;99.90;;;;;;5007457;28;20190;-65
2023/03/23 09:36:07;;;;;;;1.33;1.23;;;13.20;99.90;;;;;;5005367;28;20246;-69
2023/03/23 09:38:34;;;;;;;3.10;1.65;;;13.30;99.90;;;;;;5007110;28;20722;-66
2023/03/23 09:41:18;;;;;;;1.25;1.13;;;13.20;99.90;;;;;;5017729;28;20194;-65
2023/03/23 09:43:46;;;;;;;1.92;1.30;;;13.20;99.90;;;;;;5009100;28;20187;-67
2023/03/23 09:46:18;;;;;;;1.70;1.50;;;13.40;99.90;;;;;;5007940;28;20561;-67
2023/03/23 09:48:56;;;;;;;1.70;1.60;;;13.40;99.90;;;;;;5005597;28;20264;-66
2023/03/23 09:51:46;;;;;;;3.95;2.10;;;13.30;99.90;;;;;;4993368;28;20191;-66
2023/03/23 09:54:28;;;;;;;4.85;1.80;;;13.50;99.90;;;;;;5006682;28;20168;-66
2023/03/23 09:56:56;;;;;;;4.45;1.60;;;13.60;99.90;;;;;;5008045;28;20587;-65
2023/03/23 09:59:46;;;;;;;3.38;1.60;;;13.70;99.90;;;;;;5006458;28;20172;-66
2023/03/23 10:02:19;;;;;;;1.80;1.70;;;13.70;99.90;;;;;;5012145;28;20202;-66
2023/03/23 10:04:47;;;;;;;2.58;1.55;;;13.70;99.90;;;;;;5015840;28;20266;-66
2023/03/23 10:07:16;;;;;;;3.10;1.35;;;13.80;99.90;;;;;;5007853;28;20270;-67
2023/03/23 10:09:45;;;;;;;3.35;1.50;;;14.00;99.90;;;;;;4995568;28;20242;-66
2023/03/23 10:13:01;;;;;;;2.33;1.90;;;14.20;99.90;;;;;;5007917;28;20230;-67
2023/03/23 10:15:34;;;;;;;3.33;2.35;;;14.20;99.90;;;;;;4985916;28;20721;-67
2023/03/23 10:18:15;;;;;;;4.30;2.05;;;14.40;99.90;;;;;;4996755;28;20223;-67
2023/03/23 10:21:01;;;;;;;1.83;1.67;;;14.50;99.90;;;;;;4988659;28;20227;-69
2023/03/23 10:23:49;;;;;;;2.25;1.42;;;14.70;99.90;;;;;;5015442;28;20203;-70
2023/03/23 10:27:09;;;;;;;3.38;1.73;;;14.80;99.90;;;;;;4992357;28;20664;-70
2023/03/23 10:29:43;;;;;;;4.15;2.35;;;14.70;99.90;;;;;;4983005;28;20263;-69
2023/03/23 10:32:16;;;;;;;3.10;2.28;;;15.00;99.90;;;;;;4989681;28;20207;-69
2023/03/23 10:35:03;;;;;;;2.03;1.80;;;15.10;99.90;;;;;;4991376;28;20662;-69
2023/03/23 10:37:52;;;;;;;2.00;1.90;;;15.20;99.90;;;;;;4996534;28;20183;-69
2023/03/23 10:40:23;;;;;;;6.53;2.20;;;15.40;99.90;;;;;;4998314;28;20184;-71
2023/03/23 10:42:51;;;;;;;6.57;1.80;;;15.50;99.90;;;;;;4998975;28;20214;-68
2023/03/23 10:45:28;;;;;;;1.88;1.73;;;15.40;99.90;;;;;;5001858;28;20187;-67
2023/03/23 10:48:04;;;;;;;4.35;1.80;;;15.70;99.90;;;;;;4998736;28;20186;-68
2023/03/23 10:50:32;;;;;;;2.67;1.77;;;15.90;99.90;;;;;;5003977;28;20183;-66
2023/03/23 10:53:00;;;;;;;1.52;1.40;;;16.30;99.90;;;;;;4999488;28;20191;-69
2023/03/23 10:55:39;;;;;;;2.10;1.83;;;16.50;99.90;;;;;;5003980;28;20873;-68
2023/03/23 10:58:23;;;;;;;2.35;1.42;;;16.40;99.90;;;;;;5009275;28;20175;-68
2023/03/23 11:00:50;;;;;;;1.98;1.70;;;16.20;99.90;;;;;;5004943;28;20221;-67
2023/03/23 11:03:17;;;;;;;7.20;1.98;;;16.00;99.90;;;;;;4999757;28;20192;-72
2023/03/23 11:05:50;;;;;;;2.90;1.40;;;16.20;99.90;;;;;;5003141;28;20241;-68
2023/03/23 11:08:30;;;;;;;1.70;1.60;;;16.20;99.90;;;;;;5012583;28;20280;-67
2023/03/23 11:11:07;;;;;;;4.75;2.10;;;16.50;99.90;;;;;;5002466;28;20187;-68
2023/03/23 11:13:33;;;;;;;2.88;1.88;;;16.80;99.90;;;;;;5007399;28;20198;-68
2023/03/23 11:16:00;;;;;;;6.25;2.20;;;16.90;99.90;;;;;;5000428;28;20223;-68
2023/03/23 11:18:42;;;;;;;3.67;2.08;;;16.70;99.90;;;;;;5007985;28;20211;-67
2023/03/23 11:21:11;;;;;;;4.60;1.90;;;16.70;99.90;;;;;;5011285;28;20671;-68
2023/03/23 11:23:41;;;;;;;3.67;2.00;;;16.60;99.90;;;;;;5005684;28;20253;-68
2023/03/23 11:26:19;;;;;;;5.65;2.05;;;16.60;99.90;;;;;;5011556;28;20617;-68
2023/03/23 11:29:10;;;;;;;3.95;2.28;;;16.40;99.90;;;;;;5009874;28;20175;-68
2023/03/23 11:31:42;;;;;;;3.15;1.85;;;16.50;99.90;;;;;;5007771;28;20207;-68
2023/03/23 11:34:16;;;;;;;2.42;1.95;;;16.70;99.90;;;;;;5008763;28;20293;-68
2023/03/23 11:36:49;;;;;;;2.83;2.17;;;16.70;99.90;;;;;;5009420;28;20234;-66
2023/03/23 11:39:21;;;;;;;3.88;1.60;;;16.50;99.90;;;;;;5008229;28;20226;-68
2023/03/23 11:41:48;;;;;;;5.05;2.85;;;16.60;99.90;;;;;;5025916;28;20302;-68
2023/03/23 11:44:14;;;;;;;4.47;2.03;;;16.70;99.90;;;;;;5008652;28;20183;-67
2023/03/23 11:46:55;;;;;;;5.45;2.65;;;16.60;99.90;;;;;;5011668;28;20178;-67
2023/03/23 11:50:18;;;;;;;6.25;2.72;;;16.50;99.90;;;;;;5011123;28;20180;-64
2023/03/23 11:53:03;;;;;;;3.70;2.00;;;16.30;99.90;;;;;;4985921;28;20273;-68
2023/03/23 11:55:50;;;;;;;4.53;2.05;;;16.20;99.90;;;;;;4987430;28;20181;-68
2023/03/23 11:58:18;;;;;;;3.72;1.83;;;16.40;99.90;;;;;;5000586;28;20234;-68
2023/03/23 12:00:56;;;;;;;3.70;2.58;;;16.70;99.90;;;;;;5008564;28;20208;-68
2023/03/23 12:03:40;;;;;;;2.97;1.95;;;17.00;99.90;;;;;;5006625;28;20183;-69
2023/03/23 12:06:12;;;;;;;4.40;2.15;;;17.20;99.90;;;;;;5026719;28;20183;-68
2023/03/23 12:09:10;;;;;;;3.70;1.63;;;17.10;99.90;;;;;;5007313;28;20222;-68
2023/03/23 12:11:56;;;;;;;4.45;1.67;;;16.90;99.90;;;;;;5022662;28;20297;-68
2023/03/23 12:14:55;;;;;;;4.60;1.67;;;17.00;99.90;;;;;;5015172;28;20234;-68
2023/03/23 12:17:27;;;;;;;3.42;1.33;;;17.00;99.90;;;;;;5005537;28;20227;-68
2023/03/23 12:20:10;;;;;;;2.10;1.70;;;17.10;99.90;;;;;;5011654;28;20568;-67
2023/03/23 12:22:44;;;;;;;2.53;1.90;;;17.10;99.90;;;;;;5014385;28;20230;-68
2023/03/23 12:25:20;;;;;;;2.70;2.00;;;17.10;99.90;;;;;;5015819;28;20187;-68
2023/03/23 12:28:04;;;;;;;4.45;2.97;;;17.10;99.90;;;;;;5014140;28;20181;-67
2023/03/23 12:30:42;;;;;;;3.05;1.67;;;17.10;99.90;;;;;;5014344;28;20508;-68
2023/03/23 12:33:17;;;;;;;4.07;1.70;;;16.90;99.90;;;;;;4999377;28;20180;-68
2023/03/23 12:36:00;;;;;;;1.27;1.10;;;16.80;99.90;;;;;;5002553;28;20178;-68
2023/03/23 12:38:28;;;;;;;4.13;1.85;;;16.80;99.90;;;;;;5010500;28;20694;-68
2023/03/23 12:40:54;;;;;;;3.33;1.50;;;17.00;99.90;;;;;;5003129;28;20210;-68
2023/03/23 12:44:05;;;;;;;3.42;1.75;;;17.00;99.90;;;;;;5009965;28;20191;-68
2023/03/23 12:47:07;;;;;;;4.25;2.63;;;16.80;99.90;;;;;;5004232;28;20211;-68
2023/03/23 12:49:50;;;;;;;5.03;1.50;;;17.00;99.90;;;;;;4995853;28;20172;-68
2023/03/23 12:52:57;;;;;;;6.97;1.98;;;17.10;99.90;;;;;;4997814;28;20186;-68
2023/03/23 12:55:34;;;;;;;7.68;2.88;;;16.90;99.90;;;;;;5026825;28;20190;-68
2023/03/23 12:58:08;;;;;;;2.03;1.60;;;17.10;99.90;;;;;;5004946;28;20195;-68
2023/03/23 13:00:38;;;;;;;3.10;1.52;;;17.10;99.90;;;;;;5007562;28;20226;-68
2023/03/23 13:03:36;;;;;;;2.75;1.80;;;17.20;99.90;;;;;;5010304;28;20626;-69
2023/03/23 13:06:08;;;;;;;9.02;2.30;;;17.20;99.90;;;;;;5011289;28;20180;-68